createdAt,value
2023-10-24T00:00:54.049Z,82.20
2023-10-24T00:03:22.815Z,82.10
2023-10-24T00:05:52.671Z,82.10
2023-10-24T00:08:21.971Z,82.20
2023-10-24T00:10:50.621Z,82.20
2023-10-24T00:13:19.365Z,82.20
2023-10-24T00:15:48.928Z,82.20
2023-10-24T00:18:17.633Z,82.10
2023-10-24T00:20:46.293Z,82.10
2023-10-24T00:23:14.512Z,82.00
2023-10-24T00:25:43.206Z,82.00
2023-10-24T00:28:11.576Z,82.10
2023-10-24T00:30:40.425Z,82.20
2023-10-24T00:33:10.467Z,82.20
2023-10-24T00:35:38.628Z,82.00
2023-10-24T00:38:07.294Z,82.00
2023-10-24T00:40:36.217Z,82.00
2023-10-24T00:43:06.081Z,82.00
2023-10-24T00:45:36.811Z,82.00
2023-10-24T00:48:06.389Z,82.00
2023-10-24T00:50:37.318Z,82.00
2023-10-24T00:53:05.686Z,82.00
2023-10-24T00:55:37.096Z,82.00
2023-10-24T00:58:05.590Z,82.20
2023-10-24T01:00:35.400Z,82.20
2023-10-24T01:03:07.278Z,82.20
2023-10-24T01:05:38.044Z,82.20
2023-10-24T01:08:07.013Z,82.20
2023-10-24T01:10:35.851Z,82.20
2023-10-24T01:13:04.106Z,82.10
2023-10-24T01:15:32.753Z,82.10
2023-10-24T01:18:01.031Z,82.00
2023-10-24T01:20:29.803Z,82.00
2023-10-24T01:22:59.342Z,82.00
2023-10-24T01:25:30.562Z,82.00
2023-10-24T01:27:59.613Z,82.00
2023-10-24T01:30:28.244Z,82.00
2023-10-24T01:32:56.935Z,81.90
2023-10-24T01:35:25.889Z,81.90
2023-10-24T01:37:54.118Z,81.90
2023-10-24T01:40:24.225Z,81.90
2023-10-24T01:42:52.896Z,81.80
2023-10-24T01:45:21.392Z,81.80
2023-10-24T01:47:49.581Z,81.80
2023-10-24T01:50:18.386Z,81.70
2023-10-24T01:52:46.609Z,81.70
2023-10-24T01:55:15.363Z,81.70
2023-10-24T01:57:44.902Z,81.60
2023-10-24T02:00:14.482Z,81.60
2023-10-24T02:02:43.172Z,81.60
2023-10-24T02:05:13.433Z,81.60
2023-10-24T02:07:42.133Z,81.60
2023-10-24T02:10:10.938Z,81.80
2023-10-24T02:12:39.583Z,81.70
2023-10-24T02:15:10.505Z,81.70
2023-10-24T02:17:39.280Z,81.70
2023-10-24T02:20:09.577Z,81.70
2023-10-24T02:22:38.266Z,81.80
2023-10-24T02:25:07.449Z,81.70
2023-10-24T02:27:36.675Z,81.80
2023-10-24T02:30:05.294Z,81.80
2023-10-24T02:32:35.037Z,81.90
2023-10-24T02:35:04.847Z,81.80
2023-10-24T02:37:33.523Z,81.80
2023-10-24T02:40:01.653Z,81.90
2023-10-24T02:42:30.835Z,82.00
2023-10-24T02:45:00.189Z,82.00
2023-10-24T02:47:29.307Z,82.00
2023-10-24T02:49:59.555Z,82.10
2023-10-24T02:52:30.078Z,82.20
2023-10-24T02:54:59.279Z,82.20
2023-10-24T02:57:28.251Z,82.30
2023-10-24T02:59:57.115Z,82.40
2023-10-24T03:02:25.266Z,82.50
2023-10-24T03:04:53.937Z,82.50
2023-10-24T03:07:25.171Z,82.40
2023-10-24T03:09:53.832Z,82.40
2023-10-24T03:12:21.997Z,82.30
2023-10-24T03:14:50.918Z,82.40
2023-10-24T03:17:19.716Z,82.30
2023-10-24T03:19:48.066Z,82.30
2023-10-24T03:22:16.762Z,82.20
2023-10-24T03:24:46.350Z,82.20
2023-10-24T03:27:15.651Z,82.20
2023-10-24T03:29:44.112Z,82.20
2023-10-24T03:32:12.591Z,82.00
2023-10-24T03:34:41.904Z,82.00
2023-10-24T03:37:10.189Z,82.00
2023-10-24T03:39:39.291Z,82.00
2023-10-24T03:42:15.094Z,82.10
2023-10-24T03:44:43.648Z,82.00
2023-10-24T03:47:12.430Z,82.10
2023-10-24T03:49:40.797Z,82.20
2023-10-24T03:52:08.977Z,82.20
2023-10-24T03:54:37.682Z,82.20
2023-10-24T03:57:06.829Z,82.20
2023-10-24T03:59:36.837Z,82.20
2023-10-24T04:02:05.283Z,82.30
2023-10-24T04:04:33.913Z,82.30
2023-10-24T04:07:05.668Z,82.30
2023-10-24T04:09:39.221Z,82.20
2023-10-24T04:12:08.340Z,82.00
2023-10-24T04:14:38.719Z,81.80
2023-10-24T04:17:07.993Z,82.00
2023-10-24T04:19:36.310Z,82.10
2023-10-24T04:22:05.451Z,81.80
2023-10-24T04:24:33.652Z,81.90
2023-10-24T04:27:01.920Z,82.00
2023-10-24T04:29:32.762Z,82.20
2023-10-24T04:32:02.521Z,82.40
2023-10-24T04:34:31.229Z,82.40
2023-10-24T04:36:59.912Z,82.50
2023-10-24T04:39:28.061Z,82.60
2023-10-24T04:41:56.807Z,82.70
2023-10-24T04:44:25.761Z,82.70
2023-10-24T04:46:53.939Z,82.90
2023-10-24T04:49:23.553Z,82.90
2023-10-24T04:51:53.323Z,82.90
2023-10-24T04:54:21.624Z,83.00
2023-10-24T04:56:50.244Z,83.00
2023-10-24T04:59:19.082Z,83.00
2023-10-24T05:01:47.333Z,83.10
2023-10-24T05:04:16.010Z,83.10
2023-10-24T05:06:45.763Z,83.10
2023-10-24T05:09:17.302Z,83.20
2023-10-24T05:11:46.478Z,83.20
2023-10-24T05:14:16.854Z,83.30
2023-10-24T05:16:45.947Z,83.30
2023-10-24T05:19:14.832Z,83.40
2023-10-24T05:21:43.006Z,83.30
2023-10-24T05:24:13.057Z,83.40
2023-10-24T05:26:41.215Z,83.40
2023-10-24T05:29:09.944Z,83.30
2023-10-24T05:31:38.179Z,83.30
2023-10-24T05:34:06.513Z,83.30
2023-10-24T05:36:35.174Z,83.30
2023-10-24T05:39:03.302Z,83.30
2023-10-24T05:41:32.832Z,83.40
2023-10-24T05:44:01.480Z,83.50
2023-10-24T05:46:30.622Z,83.50
2023-10-24T05:48:59.284Z,83.50
2023-10-24T05:51:30.267Z,83.40
2023-10-24T05:53:59.223Z,83.40
2023-10-24T05:56:27.425Z,83.50
2023-10-24T05:58:58.130Z,83.50
2023-10-24T06:01:26.424Z,83.50
2023-10-24T06:03:54.663Z,83.60
2023-10-24T06:06:22.912Z,83.60
2023-10-24T06:08:51.689Z,83.60
2023-10-24T06:11:20.307Z,83.60
2023-10-24T06:13:48.998Z,83.80
2023-10-24T06:16:19.119Z,83.80
2023-10-24T06:18:48.308Z,83.90
2023-10-24T06:21:16.661Z,83.80
2023-10-24T06:23:46.361Z,83.90
2023-10-24T06:26:15.860Z,83.90
2023-10-24T06:28:44.819Z,83.90
2023-10-24T06:31:13.089Z,84.00
2023-10-24T06:33:42.710Z,83.90
2023-10-24T06:36:12.103Z,84.10
2023-10-24T06:38:40.245Z,84.10
2023-10-24T06:41:09.835Z,84.10
2023-10-24T06:43:38.427Z,84.10
2023-10-24T06:46:07.418Z,84.10
2023-10-24T06:48:35.646Z,84.20
2023-10-24T06:51:05.509Z,84.10
2023-10-24T06:53:33.651Z,84.20
2023-10-24T06:56:02.362Z,84.20
2023-10-24T06:58:30.957Z,84.20
2023-10-24T07:00:59.227Z,84.20
2023-10-24T07:03:27.636Z,84.20
2023-10-24T07:05:56.200Z,84.30
2023-10-24T07:08:25.791Z,84.30
2023-10-24T07:10:54.556Z,84.40
2023-10-24T07:13:22.850Z,84.30
2023-10-24T07:15:52.030Z,84.20
2023-10-24T07:18:20.201Z,84.30
2023-10-24T07:20:48.378Z,84.30
2023-10-24T07:23:17.489Z,84.40
2023-10-24T07:25:47.032Z,84.40
2023-10-24T07:28:15.687Z,84.40
2023-10-24T07:30:43.848Z,84.40
2023-10-24T07:33:12.060Z,84.40
2023-10-24T07:35:40.763Z,84.40
2023-10-24T07:38:08.926Z,84.50
2023-10-24T07:40:37.579Z,85.50
2023-10-24T07:43:08.622Z,84.50
2023-10-24T07:45:37.707Z,84.70
2023-10-24T07:48:07.122Z,84.60
2023-10-24T07:50:35.875Z,84.60
2023-10-24T07:53:05.242Z,84.60
2023-10-24T07:55:34.048Z,84.80
2023-10-24T07:58:02.210Z,84.80
2023-10-24T08:00:32.279Z,84.80
2023-10-24T08:03:01.033Z,84.80
2023-10-24T08:05:29.290Z,85.00
2023-10-24T08:07:57.467Z,85.10
2023-10-24T08:10:26.190Z,85.10
2023-10-24T08:12:54.842Z,85.00
2023-10-24T08:15:23.017Z,84.90
2023-10-24T08:17:53.846Z,85.00
2023-10-24T08:20:22.269Z,85.00
2023-10-24T08:22:51.008Z,85.00
2023-10-24T08:25:19.453Z,85.00
2023-10-24T08:27:48.123Z,85.10
2023-10-24T08:30:16.407Z,85.10
2023-10-24T08:32:45.071Z,85.00
2023-10-24T08:35:15.180Z,84.80
2023-10-24T08:37:43.866Z,84.90
2023-10-24T08:40:13.290Z,84.80
2023-10-24T08:42:42.221Z,84.70
2023-10-24T08:45:12.617Z,84.70
2023-10-24T08:47:43.141Z,84.60
2023-10-24T08:50:12.694Z,84.40
2023-10-24T08:52:42.785Z,84.40
2023-10-24T08:55:10.390Z,84.50
2023-10-24T08:57:42.696Z,84.60
2023-10-24T09:00:13.178Z,84.60
2023-10-24T09:02:43.804Z,84.50
2023-10-24T09:05:13.127Z,84.60
2023-10-24T09:07:42.909Z,84.60
2023-10-24T09:10:12.299Z,84.50
2023-10-24T09:12:41.337Z,84.40
2023-10-24T09:15:12.012Z,84.30
2023-10-24T09:17:40.489Z,84.30
2023-10-24T09:20:10.001Z,84.40
2023-10-24T09:22:38.766Z,84.40
2023-10-24T09:25:10.322Z,84.30
2023-10-24T09:27:38.969Z,84.20
2023-10-24T09:30:13.408Z,84.20
2023-10-24T09:32:42.962Z,84.20
2023-10-24T09:35:11.965Z,84.20
2023-10-24T09:37:47.446Z,84.20
2023-10-24T09:40:17.278Z,84.20
2023-10-24T09:42:49.730Z,84.20
2023-10-24T09:45:20.256Z,84.30
2023-10-24T09:47:51.209Z,84.20
2023-10-24T09:50:21.618Z,84.20
2023-10-24T09:52:51.533Z,84.10
2023-10-24T09:55:22.209Z,84.00
2023-10-24T09:57:51.952Z,83.90
2023-10-24T10:00:23.016Z,83.90
2023-10-24T10:02:52.130Z,84.80
2023-10-24T10:05:21.280Z,83.90
2023-10-24T10:07:51.435Z,84.00
2023-10-24T10:10:22.995Z,83.90
2023-10-24T10:12:52.867Z,83.80
2023-10-24T10:15:38.019Z,83.90
2023-10-24T10:18:16.971Z,84.00
2023-10-24T10:20:56.718Z,84.00
2023-10-24T10:23:53.718Z,84.80
2023-10-24T10:26:26.411Z,84.00
2023-10-24T10:29:09.461Z,83.80
2023-10-24T10:32:37.772Z,83.90
2023-10-24T10:34:57.536Z,84.30
2023-10-24T10:37:33.355Z,84.00
2023-10-24T10:40:28.270Z,84.20
2023-10-24T10:42:58.421Z,84.40
2023-10-24T10:45:28.670Z,84.20
2023-10-24T10:48:01.676Z,84.50
2023-10-24T10:50:31.072Z,84.90
2023-10-24T10:53:34.796Z,84.70
2023-10-24T10:56:20.244Z,85.00
2023-10-24T10:59:12.470Z,85.00
2023-10-24T11:01:52.760Z,85.20
2023-10-24T11:04:20.978Z,85.00
2023-10-24T11:06:54.132Z,85.10
2023-10-24T11:09:23.258Z,85.30
2023-10-24T11:12:28.686Z,85.30
2023-10-24T11:15:31.166Z,85.40
2023-10-24T11:18:01.340Z,85.30
2023-10-24T11:20:31.044Z,85.20
2023-10-24T11:22:59.776Z,85.90
2023-10-24T11:25:28.633Z,85.10
2023-10-24T11:28:07.191Z,85.10
2023-10-24T11:30:36.750Z,84.90
2023-10-24T11:33:05.583Z,84.90
2023-10-24T11:35:33.757Z,84.90
2023-10-24T11:38:02.484Z,85.00
2023-10-24T11:40:31.538Z,85.10
2023-10-24T11:43:06.480Z,85.30
2023-10-24T11:45:38.846Z,85.30
2023-10-24T11:48:07.626Z,85.20
2023-10-24T11:50:45.212Z,85.30
2023-10-24T11:53:13.987Z,85.50
2023-10-24T11:55:42.174Z,85.60
2023-10-24T11:58:12.836Z,85.70
2023-10-24T12:00:43.078Z,85.70
2023-10-24T12:03:12.007Z,85.90
2023-10-24T12:05:53.381Z,86.10
2023-10-24T12:08:25.762Z,86.20
2023-10-24T12:10:57.909Z,86.40
2023-10-24T12:13:26.959Z,86.30
2023-10-24T12:15:58.699Z,86.10
2023-10-24T12:18:26.936Z,86.30
2023-10-24T12:20:55.723Z,86.20
2023-10-24T12:23:24.787Z,86.20
2023-10-24T12:25:54.326Z,86.30
2023-10-24T12:28:22.550Z,86.20
2023-10-24T12:30:51.247Z,86.50
2023-10-24T12:33:21.426Z,86.40
2023-10-24T12:35:49.710Z,86.60
2023-10-24T12:38:18.835Z,86.50
2023-10-24T12:40:47.088Z,86.40
2023-10-24T12:43:15.250Z,86.40
2023-10-24T12:45:44.246Z,86.70
2023-10-24T12:48:12.931Z,86.80
2023-10-24T12:50:42.789Z,86.90
2023-10-24T12:53:11.443Z,87.00
2023-10-24T12:55:40.171Z,87.00
2023-10-24T12:58:09.094Z,86.80
2023-10-24T13:00:37.221Z,86.80
2023-10-24T13:03:17.139Z,86.80
2023-10-24T13:05:48.557Z,86.80
2023-10-24T13:08:17.313Z,86.80
2023-10-24T13:10:45.491Z,86.80
2023-10-24T13:13:14.228Z,87.00
2023-10-24T13:15:42.917Z,87.00
2023-10-24T13:18:11.158Z,87.00
2023-10-24T13:20:39.881Z,87.00
2023-10-24T13:23:09.931Z,87.10
2023-10-24T13:25:39.995Z,87.00
2023-10-24T13:28:08.661Z,87.00
2023-10-24T13:30:44.547Z,86.90
2023-10-24T13:33:13.914Z,86.80
2023-10-24T13:38:15.074Z,86.80
2023-10-24T13:40:43.740Z,86.80
2023-10-24T13:43:11.918Z,86.80
2023-10-24T13:45:40.586Z,86.80
2023-10-24T13:48:09.300Z,86.80
2023-10-24T13:50:38.156Z,86.80
2023-10-24T13:53:06.378Z,86.80
2023-10-24T13:55:38.496Z,86.80
2023-10-24T13:58:07.632Z,86.80
2023-10-24T14:00:35.988Z,86.80
2023-10-24T14:03:08.185Z,86.90
2023-10-24T14:05:39.703Z,86.90
2023-10-24T14:08:08.027Z,87.00
2023-10-24T14:10:38.257Z,87.10
2023-10-24T14:13:06.444Z,87.30
2023-10-24T14:15:35.258Z,87.40
2023-10-24T14:18:04.577Z,87.40
2023-10-24T14:20:33.604Z,87.40
2023-10-24T14:23:01.890Z,87.50
2023-10-24T14:25:30.565Z,87.50
2023-10-24T14:28:00.611Z,87.60
2023-10-24T14:30:28.921Z,87.70
2023-10-24T14:32:57.641Z,87.70
2023-10-24T14:35:25.843Z,87.70
2023-10-24T14:37:54.594Z,87.70
2023-10-24T14:40:22.856Z,87.70
2023-10-24T14:42:51.500Z,87.80
2023-10-24T14:45:21.400Z,87.70
2023-10-24T14:47:50.374Z,87.80
2023-10-24T14:50:18.841Z,87.80
2023-10-24T14:52:47.094Z,87.80
2023-10-24T14:55:15.888Z,87.90
2023-10-24T14:57:44.032Z,87.90
2023-10-24T15:00:13.401Z,87.80
2023-10-24T15:02:42.926Z,87.90
2023-10-24T15:05:11.300Z,88.10
2023-10-24T15:07:40.067Z,88.10
2023-10-24T15:10:10.087Z,88.10
2023-10-24T15:12:38.287Z,88.10
2023-10-24T15:15:07.292Z,88.10
2023-10-24T15:17:35.505Z,88.20
2023-10-24T15:20:06.389Z,88.30
2023-10-24T15:22:35.743Z,88.40
2023-10-24T15:25:04.479Z,88.30
2023-10-24T15:27:32.731Z,88.30
2023-10-24T15:30:00.945Z,88.30
2023-10-24T15:32:29.765Z,88.40
2023-10-24T15:34:58.090Z,88.30
2023-10-24T15:37:27.650Z,88.40
2023-10-24T15:39:55.838Z,88.40
2023-10-24T15:42:24.002Z,88.40
2023-10-24T15:44:59.326Z,88.40
2023-10-24T15:47:27.534Z,88.60
2023-10-24T15:49:58.883Z,88.50
2023-10-24T15:52:37.938Z,88.50
2023-10-24T15:55:24.363Z,89.50
2023-10-24T15:57:57.442Z,88.40
2023-10-24T16:00:26.668Z,88.50
2023-10-24T16:02:55.094Z,88.50
2023-10-24T16:05:24.619Z,88.50
2023-10-24T16:07:54.669Z,88.50
2023-10-24T16:10:22.873Z,88.60
2023-10-24T16:12:51.560Z,88.50
2023-10-24T16:15:19.737Z,88.50
2023-10-24T16:17:48.541Z,88.40
2023-10-24T16:20:16.912Z,88.40
2023-10-24T16:22:45.114Z,88.50
2023-10-24T16:25:15.271Z,88.40
2023-10-24T16:27:43.907Z,88.40
2023-10-24T16:30:13.844Z,88.30
2023-10-24T16:32:42.896Z,88.30
2023-10-24T16:35:11.232Z,88.30
2023-10-24T16:37:39.511Z,88.30
2023-10-24T16:40:09.269Z,88.30
2023-10-24T16:42:39.354Z,88.30
2023-10-24T16:45:09.060Z,88.30
2023-10-24T16:47:37.231Z,88.30
2023-10-24T16:50:06.589Z,88.20
2023-10-24T16:52:34.793Z,88.20
2023-10-24T16:55:03.090Z,88.20
2023-10-24T16:57:32.559Z,88.20
2023-10-24T17:00:04.211Z,88.10
2023-10-24T17:02:32.642Z,88.30
2023-10-24T17:05:00.908Z,88.20
2023-10-24T17:07:29.222Z,88.20
2023-10-24T17:09:57.547Z,88.20
2023-10-24T17:12:26.842Z,88.20
2023-10-24T17:14:56.502Z,88.20
2023-10-24T17:17:26.108Z,88.30
2023-10-24T17:19:54.441Z,88.30
2023-10-24T17:22:24.937Z,88.30
2023-10-24T17:24:53.802Z,88.30
2023-10-24T17:27:22.751Z,88.30
2023-10-24T17:29:50.891Z,88.30
2023-10-24T17:32:20.024Z,88.30
2023-10-24T17:34:51.095Z,88.30
2023-10-24T17:37:20.065Z,88.40
2023-10-24T17:39:49.491Z,88.30
2023-10-24T17:42:18.354Z,88.30
2023-10-24T17:44:46.618Z,88.30
2023-10-24T17:47:15.777Z,88.30
2023-10-24T17:49:46.454Z,88.30
2023-10-24T17:52:16.062Z,88.20
2023-10-24T17:54:44.347Z,88.20
2023-10-24T17:57:13.385Z,87.50
2023-10-24T17:59:42.391Z,88.20
2023-10-24T18:02:12.152Z,88.20
2023-10-24T18:04:40.475Z,88.10
2023-10-24T18:09:42.665Z,87.90
2023-10-24T18:12:11.517Z,88.90
2023-10-24T18:14:40.041Z,88.10
2023-10-24T18:17:08.507Z,88.10
2023-10-24T18:19:36.663Z,88.20
2023-10-24T18:22:05.721Z,88.20
2023-10-24T18:24:34.568Z,88.20
2023-10-24T18:27:04.218Z,88.30
2023-10-24T18:29:34.384Z,88.30
2023-10-24T18:32:03.411Z,88.50
2023-10-24T18:34:31.582Z,88.40
2023-10-24T18:37:01.073Z,88.30
2023-10-24T18:39:29.254Z,88.30
2023-10-24T18:41:57.893Z,88.30
2023-10-24T18:44:28.227Z,88.30
2023-10-24T18:46:57.476Z,88.40
2023-10-24T18:49:25.617Z,88.30
2023-10-24T18:51:54.712Z,88.30
2023-10-24T18:54:23.264Z,88.40
2023-10-24T18:56:52.535Z,88.40
2023-10-24T18:59:21.890Z,88.40
2023-10-24T19:01:51.422Z,88.50
2023-10-24T19:04:19.922Z,88.60
2023-10-24T19:06:49.513Z,88.60
2023-10-24T19:09:18.388Z,88.50
2023-10-24T19:11:46.984Z,88.40
2023-10-24T19:14:16.041Z,88.40
2023-10-24T19:16:44.804Z,88.40
2023-10-24T19:19:17.495Z,88.40
2023-10-24T19:21:46.188Z,88.30
2023-10-24T19:24:15.567Z,88.30
2023-10-24T19:26:48.315Z,88.40
2023-10-24T19:29:17.769Z,88.40
2023-10-24T19:31:47.502Z,88.30
2023-10-24T19:34:18.957Z,88.40
2023-10-24T19:36:53.273Z,88.50
2023-10-24T19:39:22.926Z,88.50
2023-10-24T19:41:52.769Z,88.50
2023-10-24T19:44:21.455Z,88.40
2023-10-24T19:46:52.926Z,88.50
2023-10-24T19:49:24.409Z,88.50
2023-10-24T19:51:53.510Z,88.50
2023-10-24T19:54:23.981Z,88.40
2023-10-24T19:56:53.464Z,88.50
2023-10-24T19:59:22.658Z,88.50
2023-10-24T20:01:52.004Z,88.50
2023-10-24T20:04:24.052Z,88.50
2023-10-24T20:06:54.462Z,88.50
2023-10-24T20:09:23.129Z,88.50
2023-10-24T20:12:37.367Z,88.50
2023-10-24T20:14:41.165Z,88.60
2023-10-24T20:17:10.784Z,88.50
2023-10-24T20:19:41.423Z,88.50
2023-10-24T20:22:10.878Z,89.50
2023-10-24T20:24:40.066Z,88.50
2023-10-24T20:27:09.343Z,88.50
2023-10-24T20:29:38.245Z,88.60
2023-10-24T20:32:06.980Z,88.70
2023-10-24T20:34:35.188Z,88.60
2023-10-24T20:37:04.832Z,88.70
2023-10-24T20:39:33.951Z,88.80
2023-10-24T20:42:02.782Z,88.70
2023-10-24T20:44:30.908Z,88.60
2023-10-24T20:46:59.720Z,88.70
2023-10-24T20:49:28.682Z,88.60
2023-10-24T20:51:57.055Z,88.50
2023-10-24T20:54:26.604Z,88.50
2023-10-24T20:56:55.472Z,88.50
2023-10-24T20:59:24.556Z,88.30
2023-10-24T21:01:52.707Z,88.10
2023-10-24T21:04:21.717Z,88.10
2023-10-24T21:06:50.047Z,88.00
2023-10-24T21:09:18.935Z,87.90
2023-10-24T21:11:49.119Z,88.00
2023-10-24T21:14:17.413Z,87.90
2023-10-24T21:16:48.317Z,87.90
2023-10-24T21:19:17.025Z,88.00
2023-10-24T21:21:45.968Z,87.60
2023-10-24T21:24:15.812Z,87.70
2023-10-24T21:26:45.894Z,87.60
2023-10-24T21:29:15.409Z,87.50
2023-10-24T21:31:47.372Z,87.50
2023-10-24T21:34:15.575Z,87.50
2023-10-24T21:36:44.285Z,87.40
2023-10-24T21:39:13.128Z,87.40
2023-10-24T21:41:41.860Z,87.50
2023-10-24T21:44:10.604Z,87.30
2023-10-24T21:46:40.272Z,87.30
2023-10-24T21:49:09.267Z,87.20
2023-10-24T21:51:37.522Z,87.20
2023-10-24T21:54:05.836Z,86.90
2023-10-24T21:56:33.979Z,86.80
2023-10-24T21:59:02.852Z,86.90
2023-10-24T22:01:31.541Z,87.00
2023-10-24T22:04:01.232Z,87.00
2023-10-24T22:06:30.015Z,87.00
2023-10-24T22:08:58.183Z,86.90
2023-10-24T22:11:27.176Z,87.00
2023-10-24T22:13:55.336Z,87.00
2023-10-24T22:16:24.078Z,87.00
2023-10-24T22:18:52.297Z,87.00
2023-10-24T22:21:24.499Z,87.00
2023-10-24T22:23:53.756Z,87.10
2023-10-24T22:26:21.990Z,87.00
2023-10-24T22:28:50.652Z,87.00
2023-10-24T22:31:19.310Z,87.00
2023-10-24T22:33:48.149Z,87.00
2023-10-24T22:36:16.877Z,87.10
2023-10-24T22:38:47.526Z,87.20
2023-10-24T22:41:16.302Z,87.20
2023-10-24T22:43:44.965Z,87.20
2023-10-24T22:46:13.739Z,87.00
2023-10-24T22:48:41.033Z,87.00
2023-10-24T22:51:09.733Z,86.90
2023-10-24T22:53:38.969Z,86.90
2023-10-24T22:56:09.354Z,87.00
2023-10-24T22:58:37.503Z,86.90
2023-10-24T23:01:12.702Z,86.80
2023-10-24T23:03:41.638Z,86.70
2023-10-24T23:06:10.433Z,86.70
2023-10-24T23:08:38.611Z,86.70
2023-10-24T23:11:08.986Z,86.80
2023-10-24T23:13:38.127Z,86.80
2023-10-24T23:16:08.230Z,87.00
2023-10-24T23:18:38.950Z,87.00
2023-10-24T23:21:07.100Z,87.00
2023-10-24T23:23:35.552Z,87.00
2023-10-24T23:26:03.758Z,87.00
2023-10-24T23:28:34.032Z,86.90
2023-10-24T23:31:02.286Z,87.00
2023-10-24T23:33:30.541Z,87.10
2023-10-24T23:35:59.233Z,87.00
2023-10-24T23:38:27.370Z,87.00
2023-10-24T23:40:56.121Z,87.00
2023-10-24T23:43:24.387Z,87.10
2023-10-24T23:45:54.535Z,88.10
2023-10-24T23:48:23.067Z,87.40
2023-10-24T23:50:51.722Z,87.30
2023-10-24T23:53:20.428Z,87.30
2023-10-24T23:55:49.141Z,87.30
2023-10-24T23:58:17.269Z,87.30
